createdAt,value
2018-11-10T00:02:29.359Z,8.10
2018-11-10T00:05:09.823Z,8.10
2018-11-10T00:07:47.660Z,8.20
2018-11-10T00:10:26.288Z,8.20
2018-11-10T00:13:03.073Z,8.10
2018-11-10T00:15:42.690Z,8.20
2018-11-10T00:18:27.134Z,8.20
2018-11-10T00:21:08.295Z,8.20
2018-11-10T00:23:50.482Z,8.10
2018-11-10T00:26:32.147Z,8.20
2018-11-10T00:29:14.109Z,8.10
2018-11-10T00:31:56.070Z,8.10
2018-11-10T00:34:38.411Z,8.10
2018-11-10T00:37:20.114Z,8.20
2018-11-10T00:40:04.328Z,8.20
2018-11-10T00:42:46.198Z,8.20
2018-11-10T00:45:29.364Z,8.30
2018-11-10T00:48:11.181Z,8.20
2018-11-10T00:50:51.576Z,8.20
2018-11-10T00:53:33.496Z,8.20
2018-11-10T00:56:16.363Z,8.20
2018-11-10T00:58:57.504Z,8.20
2018-11-10T01:01:38.278Z,8.20
2018-11-10T01:04:07.760Z,8.20
2018-11-10T01:06:41.486Z,8.20
2018-11-10T01:09:26.228Z,8.20
2018-11-10T01:12:03.921Z,8.20
2018-11-10T01:14:43.219Z,8.20
2018-11-10T01:17:13.241Z,8.20
2018-11-10T01:19:54.399Z,8.20
2018-11-10T01:22:36.564Z,8.30
2018-11-10T01:25:19.980Z,8.20
2018-11-10T01:28:01.551Z,8.30
2018-11-10T01:30:44.586Z,8.30
2018-11-10T01:33:27.277Z,8.20
2018-11-10T01:36:06.017Z,8.20
2018-11-10T01:38:39.396Z,8.20
2018-11-10T01:41:12.374Z,8.30
2018-11-10T01:43:54.815Z,8.20
2018-11-10T01:46:36.881Z,8.20
2018-11-10T01:49:20.626Z,8.20
2018-11-10T01:52:04.086Z,8.10
2018-11-10T01:54:47.398Z,8.20
2018-11-10T01:57:29.042Z,8.10
2018-11-10T02:00:08.712Z,8.10
2018-11-10T02:02:51.273Z,8.10
2018-11-10T02:05:34.163Z,8.10
2018-11-10T02:08:16.105Z,8.10
2018-11-10T02:10:56.970Z,8.10
2018-11-10T02:13:38.934Z,8.10
2018-11-10T02:16:22.626Z,8.10
2018-11-10T02:19:04.365Z,8.20
2018-11-10T02:21:47.634Z,8.10
2018-11-10T02:24:32.022Z,8.00
2018-11-10T02:27:17.566Z,8.10
2018-11-10T02:30:01.305Z,8.10
2018-11-10T02:32:43.419Z,8.10
2018-11-10T02:35:25.334Z,8.10
2018-11-10T02:38:07.349Z,8.20
2018-11-10T02:40:50.841Z,8.10
2018-11-10T02:43:35.185Z,8.00
2018-11-10T02:46:16.394Z,8.00
2018-11-10T02:48:55.438Z,8.10
2018-11-10T02:51:36.276Z,8.20
2018-11-10T02:54:20.180Z,8.10
2018-11-10T02:57:01.825Z,8.10
2018-11-10T02:59:43.496Z,8.10
2018-11-10T03:02:23.162Z,8.00
2018-11-10T03:04:54.905Z,8.00
2018-11-10T03:07:40.123Z,8.00
2018-11-10T03:10:20.312Z,8.00
2018-11-10T03:13:03.519Z,8.00
2018-11-10T03:15:45.717Z,7.90
2018-11-10T03:18:26.381Z,8.00
2018-11-10T03:21:09.654Z,7.90
2018-11-10T03:23:53.563Z,8.00
2018-11-10T03:26:35.967Z,8.10
2018-11-10T03:29:20.095Z,8.00
2018-11-10T03:32:02.111Z,8.00
2018-11-10T03:34:44.680Z,8.00
2018-11-10T03:37:25.840Z,8.10
2018-11-10T03:40:06.660Z,8.20
2018-11-10T03:42:49.297Z,8.10
2018-11-10T03:45:33.713Z,8.10
2018-11-10T03:48:15.955Z,8.00
2018-11-10T03:50:58.317Z,8.10
2018-11-10T03:53:38.387Z,8.10
2018-11-10T03:56:21.601Z,8.00
2018-11-10T03:59:01.832Z,8.10
2018-11-10T04:01:46.557Z,8.10
2018-11-10T04:04:16.082Z,8.00
2018-11-10T04:06:58.976Z,7.90
2018-11-10T04:09:40.326Z,7.90
2018-11-10T04:12:23.820Z,8.00
2018-11-10T04:15:07.113Z,8.00
2018-11-10T04:17:43.324Z,7.90
2018-11-10T04:20:25.491Z,7.90
2018-11-10T04:23:08.008Z,7.90
2018-11-10T04:25:49.820Z,7.90
2018-11-10T04:28:31.915Z,7.90
2018-11-10T04:31:15.701Z,7.90
2018-11-10T04:33:57.996Z,7.80
2018-11-10T04:36:41.935Z,7.90
2018-11-10T04:39:21.942Z,7.90
2018-11-10T04:42:06.512Z,8.00
2018-11-10T04:44:49.980Z,8.00
2018-11-10T04:47:31.694Z,7.90
2018-11-10T04:50:15.758Z,7.90
2018-11-10T04:52:57.849Z,7.90
2018-11-10T04:55:39.867Z,7.80
2018-11-10T04:58:22.009Z,7.80
2018-11-10T05:01:03.744Z,7.70
2018-11-10T05:03:33.242Z,7.80
2018-11-10T05:06:15.977Z,7.80
2018-11-10T05:09:00.472Z,7.80
2018-11-10T05:11:42.175Z,7.80
2018-11-10T05:14:24.026Z,7.80
2018-11-10T05:17:03.582Z,7.90
2018-11-10T05:19:45.888Z,7.90
2018-11-10T05:22:27.420Z,7.90
2018-11-10T05:25:04.277Z,7.80
2018-11-10T05:27:43.804Z,7.80
2018-11-10T05:30:25.874Z,7.80
2018-11-10T05:33:05.031Z,7.80
2018-11-10T05:35:47.024Z,7.90
2018-11-10T05:38:29.339Z,7.90
2018-11-10T05:41:11.755Z,7.90
2018-11-10T05:43:55.095Z,7.90
2018-11-10T05:46:37.211Z,7.80
2018-11-10T05:49:21.377Z,7.80
2018-11-10T05:52:02.394Z,7.80
2018-11-10T05:54:41.013Z,7.80
2018-11-10T05:57:20.464Z,7.80
2018-11-10T05:59:59.464Z,7.80
2018-11-10T06:02:38.809Z,7.80
2018-11-10T06:05:19.745Z,7.80
2018-11-10T06:08:00.397Z,7.80
2018-11-10T06:10:45.775Z,7.80
2018-11-10T06:13:28.843Z,7.70
2018-11-10T06:16:12.830Z,7.80
2018-11-10T06:18:54.597Z,7.80
2018-11-10T06:21:37.786Z,7.80
2018-11-10T06:24:20.417Z,7.70
2018-11-10T06:27:02.820Z,7.70
2018-11-10T06:29:45.034Z,7.70
2018-11-10T06:32:28.852Z,7.70
2018-11-10T06:35:09.190Z,7.70
2018-11-10T06:37:52.729Z,7.70
2018-11-10T06:40:31.670Z,7.70
2018-11-10T06:43:15.512Z,7.80
2018-11-10T06:46:00.077Z,7.70
2018-11-10T06:48:45.090Z,7.70
2018-11-10T06:51:26.758Z,7.80
2018-11-10T06:54:08.598Z,7.70
2018-11-10T06:56:53.988Z,7.80
2018-11-10T06:59:35.054Z,7.70
2018-11-10T07:02:16.069Z,7.80
2018-11-10T07:04:45.851Z,7.80
2018-11-10T07:07:28.529Z,7.80
2018-11-10T07:10:10.872Z,7.90
2018-11-10T07:12:53.408Z,7.80
2018-11-10T07:15:33.276Z,7.80
2018-11-10T07:18:14.957Z,7.80
2018-11-10T07:20:54.453Z,7.80
2018-11-10T07:23:37.619Z,7.80
2018-11-10T07:26:19.060Z,7.90
2018-11-10T07:29:02.675Z,7.90
2018-11-10T07:31:40.989Z,7.80
2018-11-10T07:34:20.339Z,7.80
2018-11-10T07:36:58.599Z,7.90
2018-11-10T07:39:42.014Z,7.90
2018-11-10T07:42:23.934Z,7.90
2018-11-10T07:45:06.390Z,7.90
2018-11-10T07:47:51.284Z,7.90
2018-11-10T07:50:33.829Z,8.00
2018-11-10T07:53:16.767Z,8.00
2018-11-10T07:55:59.138Z,8.00
2018-11-10T07:58:39.672Z,8.10
2018-11-10T08:01:21.938Z,8.00
2018-11-10T08:03:52.561Z,8.00
2018-11-10T08:06:34.193Z,8.10
2018-11-10T08:09:20.310Z,8.10
2018-11-10T08:12:03.442Z,8.10
2018-11-10T08:14:45.948Z,8.10
2018-11-10T08:17:29.485Z,8.00
2018-11-10T08:20:14.226Z,8.10
2018-11-10T08:22:56.862Z,8.10
2018-11-10T08:25:39.624Z,8.10
2018-11-10T08:28:22.420Z,8.20
2018-11-10T08:31:04.527Z,8.20
2018-11-10T08:33:46.001Z,8.20
2018-11-10T08:36:27.913Z,8.20
2018-11-10T08:39:11.477Z,8.20
2018-11-10T08:41:55.220Z,8.20
2018-11-10T08:44:37.958Z,8.20
2018-11-10T08:47:17.951Z,8.30
2018-11-10T08:50:01.244Z,8.20
2018-11-10T08:52:44.505Z,8.20
2018-11-10T08:55:24.948Z,8.20
2018-11-10T08:58:08.388Z,8.20
2018-11-10T09:00:49.603Z,8.20
2018-11-10T09:03:19.789Z,8.20
2018-11-10T09:05:57.144Z,8.30
2018-11-10T09:08:33.402Z,8.30
2018-11-10T09:11:07.190Z,8.40
2018-11-10T09:13:48.506Z,8.30
2018-11-10T09:16:23.937Z,8.30
2018-11-10T09:18:58.411Z,8.30
2018-11-10T09:21:41.352Z,8.40
2018-11-10T09:24:18.951Z,8.40
2018-11-10T09:26:58.686Z,8.30
2018-11-10T09:29:39.651Z,8.20
2018-11-10T09:32:18.217Z,8.20
2018-11-10T09:34:59.365Z,8.20
2018-11-10T09:37:39.348Z,8.20
2018-11-10T09:40:21.838Z,8.20
2018-11-10T09:43:02.729Z,8.30
2018-11-10T09:45:43.078Z,8.40
2018-11-10T09:48:21.688Z,8.50
2018-11-10T09:51:01.055Z,8.40
2018-11-10T09:53:42.466Z,8.30
2018-11-10T09:56:26.590Z,8.30
2018-11-10T09:59:05.814Z,8.30
2018-11-10T10:01:44.339Z,8.30
2018-11-10T10:04:14.997Z,8.40
2018-11-10T10:06:57.195Z,8.40
2018-11-10T10:09:38.119Z,8.30
2018-11-10T10:12:21.280Z,8.40
2018-11-10T10:15:04.418Z,8.40
2018-11-10T10:17:47.284Z,8.40
2018-11-10T10:20:27.978Z,8.40
2018-11-10T10:23:09.564Z,8.40
2018-11-10T10:25:53.059Z,8.40
2018-11-10T10:28:37.149Z,8.50
2018-11-10T10:31:21.074Z,8.50
2018-11-10T10:34:02.397Z,8.50
2018-11-10T10:36:43.741Z,8.50
2018-11-10T10:39:26.080Z,8.40
2018-11-10T10:42:09.825Z,8.50
2018-11-10T10:44:52.561Z,8.40
2018-11-10T10:47:35.192Z,8.50
2018-11-10T10:50:18.876Z,8.50
2018-11-10T10:52:59.485Z,8.60
2018-11-10T10:55:42.728Z,8.40
2018-11-10T10:58:23.889Z,8.50
2018-11-10T11:01:10.895Z,8.40
2018-11-10T11:03:46.356Z,8.30
2018-11-10T11:06:29.839Z,8.30
2018-11-10T11:09:10.435Z,8.40
2018-11-10T11:11:53.771Z,8.50
2018-11-10T11:14:36.403Z,8.50
2018-11-10T11:17:20.077Z,8.50
2018-11-10T11:20:02.619Z,8.50
2018-11-10T11:22:44.329Z,8.40
2018-11-10T11:25:26.043Z,8.40
2018-11-10T11:28:12.209Z,8.50
2018-11-10T11:30:54.934Z,8.50
2018-11-10T11:33:39.418Z,8.50
2018-11-10T11:36:22.190Z,8.50
2018-11-10T11:39:05.093Z,8.50
2018-11-10T11:41:41.173Z,8.50
2018-11-10T11:44:24.579Z,8.40
2018-11-10T11:47:07.323Z,8.50
2018-11-10T11:49:51.215Z,8.40
2018-11-10T11:52:36.341Z,8.40
2018-11-10T11:55:20.090Z,8.50
2018-11-10T11:58:01.466Z,8.50
2018-11-10T12:00:44.724Z,8.50
2018-11-10T12:03:26.610Z,8.50
2018-11-10T12:05:56.396Z,8.50
2018-11-10T12:08:37.796Z,8.50
2018-11-10T12:11:18.709Z,8.70
2018-11-10T12:14:00.403Z,8.50
2018-11-10T12:16:41.311Z,8.60
2018-11-10T12:19:20.933Z,8.60
2018-11-10T12:22:04.399Z,8.60
2018-11-10T12:24:47.047Z,8.60
2018-11-10T12:27:28.826Z,8.40
2018-11-10T12:30:12.671Z,8.40
2018-11-10T12:32:55.907Z,8.30
2018-11-10T12:35:36.532Z,8.20
2018-11-10T12:38:18.071Z,8.20
2018-11-10T12:41:00.678Z,8.30
2018-11-10T12:43:44.195Z,8.30
2018-11-10T12:46:25.232Z,8.10
2018-11-10T12:49:07.371Z,8.20
2018-11-10T12:51:50.439Z,8.10
2018-11-10T12:54:31.503Z,8.20
2018-11-10T12:57:12.498Z,8.20
2018-11-10T12:59:54.187Z,8.10
2018-11-10T13:02:37.373Z,8.10
2018-11-10T13:05:08.500Z,8.10
2018-11-10T13:07:51.234Z,8.10
2018-11-10T13:10:35.243Z,8.00
2018-11-10T13:13:12.705Z,8.00
2018-11-10T13:15:58.782Z,8.10
2018-11-10T13:18:40.945Z,8.00
2018-11-10T13:21:26.287Z,8.00
2018-11-10T13:24:09.541Z,8.10
2018-11-10T13:26:52.499Z,8.10
2018-11-10T13:29:35.085Z,8.10
2018-11-10T13:32:17.495Z,8.20
2018-11-10T13:34:57.496Z,8.20
2018-11-10T13:37:41.229Z,8.00
2018-11-10T13:40:21.345Z,8.00
2018-11-10T13:43:01.979Z,8.00
2018-11-10T13:45:43.453Z,7.90
2018-11-10T13:48:26.066Z,7.90
2018-11-10T13:51:07.728Z,8.00
2018-11-10T13:53:54.496Z,8.00
2018-11-10T13:56:36.912Z,7.90
2018-11-10T13:59:18.965Z,8.00
2018-11-10T14:01:59.692Z,8.00
2018-11-10T14:04:29.839Z,8.00
2018-11-10T14:07:10.794Z,8.00
2018-11-10T14:09:51.469Z,8.00
2018-11-10T14:12:30.684Z,8.00
2018-11-10T14:15:13.822Z,8.00
2018-11-10T14:17:55.217Z,8.00
2018-11-10T14:20:36.860Z,7.90
2018-11-10T14:23:17.695Z,7.90
2018-11-10T14:25:59.008Z,7.80
2018-11-10T14:28:41.300Z,7.80
2018-11-10T14:31:24.164Z,7.80
2018-11-10T14:34:03.583Z,7.90
2018-11-10T14:36:37.925Z,7.90
2018-11-10T14:39:13.022Z,7.80
2018-11-10T14:41:47.429Z,7.80
2018-11-10T14:44:20.372Z,7.90
2018-11-10T14:46:56.130Z,7.80
2018-11-10T14:49:28.898Z,7.90
2018-11-10T14:51:57.914Z,7.80
2018-11-10T14:54:30.926Z,7.80
2018-11-10T14:57:00.239Z,7.70
2018-11-10T14:59:32.775Z,7.80
2018-11-10T15:02:04.916Z,7.80
2018-11-10T15:04:41.824Z,7.80
2018-11-10T15:07:15.638Z,7.80
2018-11-10T15:09:51.305Z,7.70
2018-11-10T15:12:26.314Z,7.70
2018-11-10T15:15:00.564Z,7.80
2018-11-10T15:17:34.691Z,7.80
2018-11-10T15:20:07.742Z,7.90
2018-11-10T15:22:38.909Z,7.80
2018-11-10T15:25:19.417Z,7.90
2018-11-10T15:27:55.946Z,7.80
2018-11-10T15:30:30.409Z,7.70
2018-11-10T15:33:05.245Z,7.60
2018-11-10T15:35:44.135Z,7.70
2018-11-10T15:38:18.155Z,7.70
2018-11-10T15:40:54.852Z,7.60
2018-11-10T15:43:24.215Z,7.60
2018-11-10T15:46:01.551Z,7.60
2018-11-10T15:48:42.941Z,7.60
2018-11-10T15:51:26.446Z,7.70
2018-11-10T15:54:09.653Z,7.70
2018-11-10T15:56:50.611Z,7.70
2018-11-10T15:59:32.829Z,7.70
2018-11-10T16:02:10.805Z,7.60
2018-11-10T16:04:51.482Z,7.60
2018-11-10T16:07:32.872Z,7.50
2018-11-10T16:10:18.066Z,7.40
2018-11-10T16:13:00.678Z,7.40
2018-11-10T16:15:40.299Z,7.40
2018-11-10T16:18:21.261Z,7.40
2018-11-10T16:21:02.092Z,7.30
2018-11-10T16:23:42.292Z,7.20
2018-11-10T16:26:24.308Z,7.30
2018-11-10T16:29:05.447Z,7.30
2018-11-10T16:31:44.908Z,7.30
2018-11-10T16:34:22.582Z,7.40
2018-11-10T16:37:00.373Z,7.50
2018-11-10T16:39:35.142Z,7.40
2018-11-10T16:42:08.152Z,7.40
2018-11-10T16:44:44.445Z,7.40
2018-11-10T16:47:20.078Z,7.50
2018-11-10T16:49:54.514Z,7.40
2018-11-10T16:52:34.143Z,7.50
2018-11-10T16:55:12.575Z,7.40
2018-11-10T16:57:42.009Z,7.40
2018-11-10T17:00:18.214Z,7.50
2018-11-10T17:02:48.376Z,7.40
2018-11-10T17:05:18.487Z,7.40
2018-11-10T17:07:47.939Z,7.40
2018-11-10T17:10:29.087Z,7.40
2018-11-10T17:13:11.865Z,7.40
2018-11-10T17:15:52.111Z,7.40
2018-11-10T17:18:25.267Z,7.40
2018-11-10T17:21:06.566Z,7.30
2018-11-10T17:23:48.453Z,7.40
2018-11-10T17:26:32.822Z,7.50
2018-11-10T17:29:10.735Z,7.50
2018-11-10T17:31:50.127Z,7.50
2018-11-10T17:34:34.673Z,7.50
2018-11-10T17:37:13.537Z,7.50
2018-11-10T17:39:54.396Z,7.50
2018-11-10T17:42:27.888Z,7.40
2018-11-10T17:45:03.518Z,7.40
2018-11-10T17:47:41.674Z,7.40
2018-11-10T17:50:17.874Z,7.40
2018-11-10T17:52:48.002Z,7.40
2018-11-10T17:55:22.539Z,7.40
2018-11-10T17:57:59.516Z,7.40
2018-11-10T18:00:35.804Z,7.40
2018-11-10T18:03:14.066Z,7.40
2018-11-10T18:05:52.736Z,7.50
2018-11-10T18:08:22.364Z,7.50
2018-11-10T18:10:58.356Z,7.50
2018-11-10T18:13:37.361Z,7.60
2018-11-10T18:16:21.968Z,7.60
2018-11-10T18:19:05.362Z,7.60
2018-11-10T18:22:46.746Z,7.60
2018-11-10T18:25:15.998Z,7.60
2018-11-10T18:27:50.771Z,7.60
2018-11-10T18:30:23.752Z,7.60
2018-11-10T18:33:00.168Z,7.60
2018-11-10T18:35:33.587Z,7.60
2018-11-10T18:38:10.527Z,7.60
2018-11-10T18:40:42.489Z,7.80
2018-11-10T18:43:18.533Z,7.70
2018-11-10T18:45:53.363Z,7.70
2018-11-10T18:48:29.682Z,7.70
2018-11-10T18:51:06.071Z,7.80
2018-11-10T18:53:46.136Z,7.80
2018-11-10T18:56:26.032Z,7.70
2018-11-10T18:59:04.316Z,7.70
2018-11-10T19:01:42.500Z,7.80
2018-11-10T19:04:19.929Z,7.80
2018-11-10T19:06:55.022Z,7.80
2018-11-10T19:09:28.406Z,7.80
2018-11-10T19:12:05.171Z,7.70
2018-11-10T19:14:39.980Z,7.80
2018-11-10T19:17:16.107Z,7.80
2018-11-10T19:19:51.725Z,7.80
2018-11-10T19:22:28.634Z,7.90
2018-11-10T19:25:04.262Z,7.80
2018-11-10T19:27:41.547Z,7.90
2018-11-10T19:30:14.990Z,8.00
2018-11-10T19:32:47.317Z,8.00
2018-11-10T19:35:25.753Z,8.00
2018-11-10T19:38:02.662Z,8.00
2018-11-10T19:40:37.921Z,8.00
2018-11-10T19:43:10.652Z,8.00
2018-11-10T19:45:50.101Z,7.90
2018-11-10T19:48:30.270Z,8.00
2018-11-10T19:51:01.241Z,8.00
2018-11-10T19:53:37.790Z,8.10
2018-11-10T19:56:16.405Z,8.00
2018-11-10T19:58:54.480Z,8.00
2018-11-10T20:01:28.901Z,7.90
2018-11-10T20:04:04.815Z,8.00
2018-11-10T20:06:39.889Z,7.90
2018-11-10T20:09:14.787Z,8.10
2018-11-10T20:11:53.125Z,8.00
2018-11-10T20:14:28.553Z,8.00
2018-11-10T20:17:09.040Z,8.00
2018-11-10T20:19:43.266Z,8.00
2018-11-10T20:22:18.091Z,8.00
2018-11-10T20:24:53.377Z,8.00
2018-11-10T20:27:29.691Z,8.10
2018-11-10T20:30:05.525Z,8.10
2018-11-10T20:32:38.650Z,8.00
2018-11-10T20:35:13.139Z,8.00
2018-11-10T20:37:53.240Z,8.10
2018-11-10T20:40:28.986Z,8.00
2018-11-10T20:43:06.242Z,8.10
2018-11-10T20:45:43.275Z,8.10
2018-11-10T20:48:23.158Z,8.00
2018-11-10T20:51:00.634Z,8.00
2018-11-10T20:53:39.071Z,8.00
2018-11-10T20:56:16.738Z,7.90
2018-11-10T20:58:55.894Z,8.00
2018-11-10T21:01:35.361Z,8.10
2018-11-10T21:04:04.701Z,8.00
2018-11-10T21:06:41.262Z,7.90
2018-11-10T21:09:23.915Z,8.00
2018-11-10T21:12:05.133Z,8.00
2018-11-10T21:14:47.222Z,8.00
2018-11-10T21:17:17.337Z,8.10
2018-11-10T21:20:00.169Z,8.20
2018-11-10T21:22:35.031Z,8.10
2018-11-10T21:25:08.941Z,8.10
2018-11-10T21:27:46.572Z,8.20
2018-11-10T21:30:26.072Z,8.20
2018-11-10T21:33:06.609Z,8.20
2018-11-10T21:35:42.341Z,8.20
2018-11-10T21:38:12.036Z,8.20
2018-11-10T21:40:43.973Z,8.20
2018-11-10T21:43:23.081Z,8.30
2018-11-10T21:45:57.848Z,8.30
2018-11-10T21:48:35.896Z,8.30
2018-11-10T21:51:11.874Z,8.30
2018-11-10T21:53:54.724Z,8.40
2018-11-10T21:56:33.059Z,8.30
2018-11-10T21:59:12.613Z,8.30
2018-11-10T22:01:52.502Z,8.20
2018-11-10T22:04:21.860Z,8.20
2018-11-10T22:07:04.166Z,8.20
2018-11-10T22:09:43.704Z,8.30
2018-11-10T22:15:11.829Z,8.40
2018-11-10T22:17:52.284Z,8.40
2018-11-10T22:20:36.367Z,8.30
2018-11-10T22:23:24.270Z,8.40
2018-11-10T22:26:16.019Z,8.40
2018-11-10T22:31:54.378Z,8.40
2018-11-10T22:34:44.221Z,8.50
2018-11-10T22:37:28.095Z,8.50
2018-11-10T22:40:17.716Z,8.40
2018-11-10T22:42:57.525Z,8.40
2018-11-10T22:45:45.918Z,8.50
2018-11-10T22:48:31.022Z,8.40
2018-11-10T22:51:17.054Z,8.50
2018-11-10T22:54:02.765Z,8.50
2018-11-10T22:56:41.060Z,8.50
2018-11-10T22:59:23.585Z,8.50
2018-11-10T23:02:10.811Z,8.50
2018-11-10T23:04:41.966Z,8.50
2018-11-10T23:07:23.970Z,8.50
2018-11-10T23:10:08.057Z,8.60
2018-11-10T23:12:50.799Z,8.60
2018-11-10T23:15:34.605Z,8.60
2018-11-10T23:18:15.461Z,8.60
2018-11-10T23:21:07.983Z,8.60
2018-11-10T23:23:52.424Z,8.60
2018-11-10T23:26:41.290Z,8.60
2018-11-10T23:29:28.730Z,8.50
2018-11-10T23:32:10.903Z,8.50
2018-11-10T23:34:55.536Z,8.60
2018-11-10T23:40:25.770Z,8.50
2018-11-10T23:43:08.622Z,8.60
2018-11-10T23:46:07.600Z,8.50
2018-11-10T23:48:56.119Z,8.50
2018-11-10T23:51:41.959Z,8.50
2018-11-10T23:54:35.567Z,8.50
2018-11-10T23:57:18.162Z,8.50
